sensor_id;sensor_type;location;lat;lon;timestamp;P1;durP1;ratioP1;P2;durP2;ratioP2
33254;SDS011;19623;52.482;9.762;2022-12-24T00:00:59;4.82;;;3.38;;
33254;SDS011;19623;52.482;9.762;2022-12-24T00:03:25;4.85;;;2.97;;
33254;SDS011;19623;52.482;9.762;2022-12-24T00:05:51;4.45;;;3.08;;
33254;SDS011;19623;52.482;9.762;2022-12-24T00:08:16;5.20;;;3.20;;
33254;SDS011;19623;52.482;9.762;2022-12-24T00:10:42;4.30;;;3.08;;
33254;SDS011;19623;52.482;9.762;2022-12-24T00:13:08;5.28;;;3.55;;
33254;SDS011;19623;52.482;9.762;2022-12-24T00:15:33;5.47;;;3.45;;
33254;SDS011;19623;52.482;9.762;2022-12-24T00:17:59;4.75;;;2.90;;
33254;SDS011;19623;52.482;9.762;2022-12-24T00:20:24;4.43;;;2.92;;
33254;SDS011;19623;52.482;9.762;2022-12-24T00:22:50;5.65;;;3.67;;
33254;SDS011;19623;52.482;9.762;2022-12-24T00:25:16;6.03;;;3.38;;
33254;SDS011;19623;52.482;9.762;2022-12-24T00:27:41;4.40;;;3.08;;
33254;SDS011;19623;52.482;9.762;2022-12-24T00:30:08;4.68;;;3.25;;
33254;SDS011;19623;52.482;9.762;2022-12-24T00:32:34;4.32;;;3.15;;
33254;SDS011;19623;52.482;9.762;2022-12-24T00:35:01;4.43;;;3.08;;
33254;SDS011;19623;52.482;9.762;2022-12-24T00:37:27;6.15;;;3.22;;
33254;SDS011;19623;52.482;9.762;2022-12-24T00:39:52;4.28;;;2.97;;
33254;SDS011;19623;52.482;9.762;2022-12-24T00:42:18;3.40;;;2.22;;
33254;SDS011;19623;52.482;9.762;2022-12-24T00:44:44;3.72;;;2.58;;
33254;SDS011;19623;52.482;9.762;2022-12-24T00:47:09;2.70;;;2.40;;
33254;SDS011;19623;52.482;9.762;2022-12-24T00:49:35;3.80;;;2.72;;
33254;SDS011;19623;52.482;9.762;2022-12-24T00:52:00;3.88;;;2.88;;
33254;SDS011;19623;52.482;9.762;2022-12-24T00:54:27;3.25;;;2.92;;
33254;SDS011;19623;52.482;9.762;2022-12-24T00:56:52;8.45;;;3.53;;
33254;SDS011;19623;52.482;9.762;2022-12-24T00:59:18;5.13;;;3.60;;
33254;SDS011;19623;52.482;9.762;2022-12-24T01:01:44;5.25;;;3.35;;
33254;SDS011;19623;52.482;9.762;2022-12-24T01:04:09;5.00;;;3.83;;
33254;SDS011;19623;52.482;9.762;2022-12-24T01:06:53;5.30;;;3.50;;
33254;SDS011;19623;52.482;9.762;2022-12-24T01:09:20;8.55;;;3.45;;
33254;SDS011;19623;52.482;9.762;2022-12-24T01:11:45;6.53;;;4.10;;
33254;SDS011;19623;52.482;9.762;2022-12-24T01:14:11;4.57;;;3.58;;
33254;SDS011;19623;52.482;9.762;2022-12-24T01:16:37;4.05;;;2.85;;
33254;SDS011;19623;52.482;9.762;2022-12-24T01:19:02;5.28;;;3.78;;
33254;SDS011;19623;52.482;9.762;2022-12-24T01:21:28;4.88;;;3.30;;
33254;SDS011;19623;52.482;9.762;2022-12-24T01:23:54;4.40;;;3.22;;
33254;SDS011;19623;52.482;9.762;2022-12-24T01:26:19;5.88;;;3.53;;
33254;SDS011;19623;52.482;9.762;2022-12-24T01:28:45;4.25;;;3.10;;
33254;SDS011;19623;52.482;9.762;2022-12-24T01:31:12;3.85;;;3.08;;
33254;SDS011;19623;52.482;9.762;2022-12-24T01:33:39;3.30;;;2.58;;
33254;SDS011;19623;52.482;9.762;2022-12-24T01:36:05;6.05;;;3.70;;
33254;SDS011;19623;52.482;9.762;2022-12-24T01:38:31;5.22;;;3.17;;
33254;SDS011;19623;52.482;9.762;2022-12-24T01:40:57;5.20;;;3.45;;
33254;SDS011;19623;52.482;9.762;2022-12-24T01:43:41;5.13;;;3.08;;
33254;SDS011;19623;52.482;9.762;2022-12-24T01:46:28;6.18;;;3.30;;
33254;SDS011;19623;52.482;9.762;2022-12-24T01:48:57;3.75;;;3.10;;
33254;SDS011;19623;52.482;9.762;2022-12-24T01:51:35;4.57;;;3.28;;
33254;SDS011;19623;52.482;9.762;2022-12-24T01:54:08;3.65;;;2.92;;
33254;SDS011;19623;52.482;9.762;2022-12-24T01:56:40;3.70;;;2.83;;
33254;SDS011;19623;52.482;9.762;2022-12-24T01:59:11;4.07;;;2.83;;
33254;SDS011;19623;52.482;9.762;2022-12-24T02:01:38;3.95;;;3.10;;
33254;SDS011;19623;52.482;9.762;2022-12-24T02:04:51;3.90;;;2.78;;
33254;SDS011;19623;52.482;9.762;2022-12-24T02:06:50;4.55;;;2.70;;
33254;SDS011;19623;52.482;9.762;2022-12-24T02:09:16;4.38;;;2.97;;
33254;SDS011;19623;52.482;9.762;2022-12-24T02:11:42;4.63;;;2.55;;
33254;SDS011;19623;52.482;9.762;2022-12-24T02:14:09;4.20;;;2.88;;
33254;SDS011;19623;52.482;9.762;2022-12-24T02:17:38;6.38;;;4.00;;
33254;SDS011;19623;52.482;9.762;2022-12-24T02:22:20;7.22;;;4.70;;
33254;SDS011;19623;52.482;9.762;2022-12-24T02:25:06;5.47;;;3.40;;
33254;SDS011;19623;52.482;9.762;2022-12-24T02:36:11;5.38;;;4.00;;
33254;SDS011;19623;52.482;9.762;2022-12-24T02:39:09;5.22;;;3.60;;
33254;SDS011;19623;52.482;9.762;2022-12-24T02:41:41;4.68;;;3.58;;
33254;SDS011;19623;52.482;9.762;2022-12-24T02:44:30;4.68;;;3.33;;
33254;SDS011;19623;52.482;9.762;2022-12-24T02:47:07;5.25;;;3.35;;
33254;SDS011;19623;52.482;9.762;2022-12-24T02:49:35;7.10;;;3.60;;
33254;SDS011;19623;52.482;9.762;2022-12-24T02:52:01;4.72;;;3.30;;
33254;SDS011;19623;52.482;9.762;2022-12-24T02:54:26;4.72;;;3.63;;
33254;SDS011;19623;52.482;9.762;2022-12-24T03:02:25;7.43;;;3.53;;
33254;SDS011;19623;52.482;9.762;2022-12-24T03:07:28;9.55;;;6.63;;
33254;SDS011;19623;52.482;9.762;2022-12-24T03:09:59;10.18;;;6.15;;
33254;SDS011;19623;52.482;9.762;2022-12-24T03:12:40;9.00;;;4.00;;
33254;SDS011;19623;52.482;9.762;2022-12-24T03:15:09;7.38;;;4.00;;
33254;SDS011;19623;52.482;9.762;2022-12-24T03:17:38;5.80;;;3.95;;
33254;SDS011;19623;52.482;9.762;2022-12-24T03:20:06;7.30;;;4.10;;
33254;SDS011;19623;52.482;9.762;2022-12-24T03:22:33;5.82;;;3.65;;
33254;SDS011;19623;52.482;9.762;2022-12-24T03:24:59;4.78;;;3.15;;
33254;SDS011;19623;52.482;9.762;2022-12-24T03:27:26;5.53;;;3.55;;
33254;SDS011;19623;52.482;9.762;2022-12-24T03:29:53;4.72;;;3.53;;
33254;SDS011;19623;52.482;9.762;2022-12-24T03:32:30;4.18;;;3.25;;
33254;SDS011;19623;52.482;9.762;2022-12-24T03:34:56;4.93;;;3.45;;
33254;SDS011;19623;52.482;9.762;2022-12-24T03:37:22;4.35;;;3.50;;
33254;SDS011;19623;52.482;9.762;2022-12-24T03:39:49;4.93;;;3.22;;
33254;SDS011;19623;52.482;9.762;2022-12-24T03:42:15;5.97;;;3.70;;
33254;SDS011;19623;52.482;9.762;2022-12-24T03:44:40;8.98;;;4.25;;
33254;SDS011;19623;52.482;9.762;2022-12-24T03:47:06;7.50;;;4.43;;
33254;SDS011;19623;52.482;9.762;2022-12-24T03:49:31;5.38;;;3.95;;
33254;SDS011;19623;52.482;9.762;2022-12-24T03:51:57;7.63;;;4.65;;
33254;SDS011;19623;52.482;9.762;2022-12-24T03:54:23;7.63;;;4.88;;
33254;SDS011;19623;52.482;9.762;2022-12-24T03:56:48;6.45;;;4.28;;
33254;SDS011;19623;52.482;9.762;2022-12-24T03:59:14;6.00;;;4.15;;
33254;SDS011;19623;52.482;9.762;2022-12-24T04:01:39;7.63;;;4.80;;
33254;SDS011;19623;52.482;9.762;2022-12-24T04:04:05;8.52;;;4.88;;
33254;SDS011;19623;52.482;9.762;2022-12-24T04:06:31;10.15;;;5.00;;
33254;SDS011;19623;52.482;9.762;2022-12-24T04:08:56;15.93;;;5.80;;
33254;SDS011;19623;52.482;9.762;2022-12-24T04:11:25;9.88;;;5.03;;
33254;SDS011;19623;52.482;9.762;2022-12-24T04:13:51;12.30;;;5.38;;
33254;SDS011;19623;52.482;9.762;2022-12-24T04:16:17;16.23;;;4.70;;
33254;SDS011;19623;52.482;9.762;2022-12-24T04:18:43;17.20;;;5.50;;
33254;SDS011;19623;52.482;9.762;2022-12-24T04:21:09;19.70;;;5.55;;
33254;SDS011;19623;52.482;9.762;2022-12-24T04:23:35;11.57;;;4.20;;
33254;SDS011;19623;52.482;9.762;2022-12-24T04:26:03;6.70;;;3.33;;
33254;SDS011;19623;52.482;9.762;2022-12-24T04:28:30;6.30;;;3.38;;
33254;SDS011;19623;52.482;9.762;2022-12-24T04:31:00;5.95;;;2.33;;
33254;SDS011;19623;52.482;9.762;2022-12-24T04:33:27;5.65;;;2.08;;
33254;SDS011;19623;52.482;9.762;2022-12-24T04:35:53;6.25;;;2.17;;
33254;SDS011;19623;52.482;9.762;2022-12-24T04:38:18;9.00;;;2.25;;
33254;SDS011;19623;52.482;9.762;2022-12-24T04:40:44;8.55;;;2.58;;
33254;SDS011;19623;52.482;9.762;2022-12-24T04:43:09;5.45;;;2.20;;
33254;SDS011;19623;52.482;9.762;2022-12-24T04:45:35;7.95;;;2.10;;
33254;SDS011;19623;52.482;9.762;2022-12-24T04:48:01;5.63;;;2.13;;
33254;SDS011;19623;52.482;9.762;2022-12-24T04:50:26;4.65;;;2.60;;
33254;SDS011;19623;52.482;9.762;2022-12-24T04:52:52;8.02;;;2.35;;
33254;SDS011;19623;52.482;9.762;2022-12-24T04:55:17;10.57;;;2.58;;
33254;SDS011;19623;52.482;9.762;2022-12-24T04:57:43;6.85;;;3.00;;
33254;SDS011;19623;52.482;9.762;2022-12-24T05:00:09;6.80;;;2.60;;
33254;SDS011;19623;52.482;9.762;2022-12-24T05:02:35;9.40;;;2.90;;
33254;SDS011;19623;52.482;9.762;2022-12-24T05:05:01;9.55;;;3.03;;
33254;SDS011;19623;52.482;9.762;2022-12-24T05:07:27;17.13;;;3.33;;
33254;SDS011;19623;52.482;9.762;2022-12-24T05:09:53;18.27;;;3.72;;
33254;SDS011;19623;52.482;9.762;2022-12-24T05:12:18;17.35;;;3.22;;
33254;SDS011;19623;52.482;9.762;2022-12-24T05:14:44;21.85;;;3.85;;
33254;SDS011;19623;52.482;9.762;2022-12-24T05:17:09;16.08;;;3.40;;
33254;SDS011;19623;52.482;9.762;2022-12-24T05:19:35;25.95;;;3.85;;
33254;SDS011;19623;52.482;9.762;2022-12-24T05:22:00;20.48;;;3.63;;
33254;SDS011;19623;52.482;9.762;2022-12-24T05:24:45;19.75;;;4.05;;
33254;SDS011;19623;52.482;9.762;2022-12-24T05:27:49;25.63;;;3.53;;
33254;SDS011;19623;52.482;9.762;2022-12-24T05:30:14;16.25;;;3.55;;
33254;SDS011;19623;52.482;9.762;2022-12-24T05:32:40;16.63;;;3.42;;
33254;SDS011;19623;52.482;9.762;2022-12-24T05:35:06;23.08;;;4.15;;
33254;SDS011;19623;52.482;9.762;2022-12-24T05:37:32;22.67;;;3.50;;
33254;SDS011;19623;52.482;9.762;2022-12-24T05:39:57;27.98;;;3.95;;
33254;SDS011;19623;52.482;9.762;2022-12-24T05:42:23;30.00;;;3.55;;
33254;SDS011;19623;52.482;9.762;2022-12-24T05:44:48;20.50;;;3.88;;
33254;SDS011;19623;52.482;9.762;2022-12-24T05:47:14;18.05;;;3.13;;
33254;SDS011;19623;52.482;9.762;2022-12-24T05:49:39;18.75;;;3.30;;
33254;SDS011;19623;52.482;9.762;2022-12-24T05:52:05;22.80;;;3.10;;
33254;SDS011;19623;52.482;9.762;2022-12-24T05:54:30;16.45;;;3.30;;
33254;SDS011;19623;52.482;9.762;2022-12-24T05:56:56;20.20;;;3.28;;
33254;SDS011;19623;52.482;9.762;2022-12-24T05:59:22;18.73;;;2.92;;
33254;SDS011;19623;52.482;9.762;2022-12-24T06:01:47;16.83;;;3.47;;
33254;SDS011;19623;52.482;9.762;2022-12-24T06:04:13;20.00;;;3.63;;
33254;SDS011;19623;52.482;9.762;2022-12-24T06:06:38;14.15;;;3.05;;
33254;SDS011;19623;52.482;9.762;2022-12-24T06:09:04;27.77;;;3.67;;
33254;SDS011;19623;52.482;9.762;2022-12-24T06:11:29;16.17;;;3.50;;
33254;SDS011;19623;52.482;9.762;2022-12-24T06:13:55;24.30;;;4.25;;
33254;SDS011;19623;52.482;9.762;2022-12-24T06:16:21;30.63;;;5.20;;
33254;SDS011;19623;52.482;9.762;2022-12-24T06:18:48;22.95;;;3.85;;
33254;SDS011;19623;52.482;9.762;2022-12-24T06:21:14;22.85;;;4.10;;
33254;SDS011;19623;52.482;9.762;2022-12-24T06:23:41;22.52;;;4.50;;
33254;SDS011;19623;52.482;9.762;2022-12-24T06:26:08;21.02;;;3.40;;
33254;SDS011;19623;52.482;9.762;2022-12-24T06:28:36;17.92;;;3.53;;
33254;SDS011;19623;52.482;9.762;2022-12-24T06:31:02;25.20;;;3.22;;
33254;SDS011;19623;52.482;9.762;2022-12-24T06:33:30;32.13;;;3.88;;
33254;SDS011;19623;52.482;9.762;2022-12-24T06:35:56;32.22;;;4.70;;
33254;SDS011;19623;52.482;9.762;2022-12-24T06:38:22;27.08;;;4.03;;
33254;SDS011;19623;52.482;9.762;2022-12-24T06:40:48;30.02;;;4.25;;
33254;SDS011;19623;52.482;9.762;2022-12-24T06:43:14;27.83;;;4.13;;
33254;SDS011;19623;52.482;9.762;2022-12-24T06:45:43;21.42;;;4.00;;
33254;SDS011;19623;52.482;9.762;2022-12-24T06:48:10;23.58;;;3.65;;
33254;SDS011;19623;52.482;9.762;2022-12-24T06:50:36;26.05;;;4.22;;
33254;SDS011;19623;52.482;9.762;2022-12-24T06:53:01;24.55;;;4.40;;
33254;SDS011;19623;52.482;9.762;2022-12-24T06:55:27;26.25;;;4.00;;
33254;SDS011;19623;52.482;9.762;2022-12-24T06:57:52;28.65;;;4.72;;
33254;SDS011;19623;52.482;9.762;2022-12-24T07:00:18;29.67;;;4.63;;
33254;SDS011;19623;52.482;9.762;2022-12-24T07:02:45;25.08;;;3.95;;
33254;SDS011;19623;52.482;9.762;2022-12-24T07:05:12;22.55;;;3.70;;
33254;SDS011;19623;52.482;9.762;2022-12-24T07:07:39;27.15;;;4.50;;
33254;SDS011;19623;52.482;9.762;2022-12-24T07:10:06;30.45;;;4.32;;
33254;SDS011;19623;52.482;9.762;2022-12-24T07:12:34;27.95;;;3.50;;
33254;SDS011;19623;52.482;9.762;2022-12-24T07:14:59;28.63;;;5.32;;
33254;SDS011;19623;52.482;9.762;2022-12-24T07:17:25;29.05;;;3.85;;
33254;SDS011;19623;52.482;9.762;2022-12-24T07:19:51;19.67;;;3.55;;
33254;SDS011;19623;52.482;9.762;2022-12-24T07:22:16;22.58;;;3.78;;
33254;SDS011;19623;52.482;9.762;2022-12-24T07:24:42;30.08;;;4.72;;
33254;SDS011;19623;52.482;9.762;2022-12-24T07:27:08;24.60;;;3.38;;
33254;SDS011;19623;52.482;9.762;2022-12-24T07:29:33;21.52;;;3.03;;
33254;SDS011;19623;52.482;9.762;2022-12-24T07:31:59;21.65;;;3.90;;
33254;SDS011;19623;52.482;9.762;2022-12-24T07:34:25;30.80;;;3.85;;
33254;SDS011;19623;52.482;9.762;2022-12-24T07:36:50;24.15;;;3.67;;
33254;SDS011;19623;52.482;9.762;2022-12-24T07:39:16;28.38;;;3.95;;
33254;SDS011;19623;52.482;9.762;2022-12-24T07:41:41;20.02;;;2.92;;
33254;SDS011;19623;52.482;9.762;2022-12-24T07:44:10;20.30;;;3.90;;
33254;SDS011;19623;52.482;9.762;2022-12-24T07:46:37;23.60;;;4.20;;
33254;SDS011;19623;52.482;9.762;2022-12-24T07:49:03;24.42;;;3.75;;
33254;SDS011;19623;52.482;9.762;2022-12-24T07:51:29;29.05;;;3.67;;
33254;SDS011;19623;52.482;9.762;2022-12-24T07:53:54;37.47;;;4.03;;
33254;SDS011;19623;52.482;9.762;2022-12-24T07:56:20;22.90;;;3.70;;
33254;SDS011;19623;52.482;9.762;2022-12-24T07:58:45;24.35;;;3.88;;
33254;SDS011;19623;52.482;9.762;2022-12-24T08:01:11;20.85;;;3.22;;
33254;SDS011;19623;52.482;9.762;2022-12-24T08:03:37;22.02;;;2.72;;
33254;SDS011;19623;52.482;9.762;2022-12-24T08:06:03;24.65;;;3.88;;
33254;SDS011;19623;52.482;9.762;2022-12-24T08:08:29;18.90;;;3.10;;
33254;SDS011;19623;52.482;9.762;2022-12-24T08:10:59;20.95;;;3.33;;
33254;SDS011;19623;52.482;9.762;2022-12-24T08:13:29;24.85;;;3.55;;
33254;SDS011;19623;52.482;9.762;2022-12-24T08:15:55;23.70;;;4.00;;
33254;SDS011;19623;52.482;9.762;2022-12-24T08:18:21;21.35;;;3.42;;
33254;SDS011;19623;52.482;9.762;2022-12-24T08:20:46;22.20;;;3.85;;
33254;SDS011;19623;52.482;9.762;2022-12-24T08:23:12;23.40;;;3.70;;
33254;SDS011;19623;52.482;9.762;2022-12-24T08:25:41;27.67;;;3.95;;
33254;SDS011;19623;52.482;9.762;2022-12-24T08:28:08;18.48;;;3.30;;
33254;SDS011;19623;52.482;9.762;2022-12-24T08:30:33;19.17;;;3.80;;
33254;SDS011;19623;52.482;9.762;2022-12-24T08:32:59;25.60;;;4.93;;
33254;SDS011;19623;52.482;9.762;2022-12-24T08:35:24;34.28;;;4.28;;
33254;SDS011;19623;52.482;9.762;2022-12-24T08:37:50;21.13;;;3.72;;
33254;SDS011;19623;52.482;9.762;2022-12-24T08:40:16;21.83;;;4.03;;
33254;SDS011;19623;52.482;9.762;2022-12-24T08:42:43;21.20;;;3.78;;
33254;SDS011;19623;52.482;9.762;2022-12-24T08:45:08;23.85;;;3.58;;
33254;SDS011;19623;52.482;9.762;2022-12-24T08:47:35;35.65;;;4.45;;
33254;SDS011;19623;52.482;9.762;2022-12-24T08:50:02;19.73;;;3.67;;
33254;SDS011;19623;52.482;9.762;2022-12-24T08:52:34;28.67;;;4.47;;
33254;SDS011;19623;52.482;9.762;2022-12-24T08:55:00;29.25;;;4.43;;
33254;SDS011;19623;52.482;9.762;2022-12-24T08:57:26;26.23;;;4.07;;
33254;SDS011;19623;52.482;9.762;2022-12-24T08:59:52;26.77;;;3.75;;
33254;SDS011;19623;52.482;9.762;2022-12-24T09:02:18;29.67;;;3.72;;
33254;SDS011;19623;52.482;9.762;2022-12-24T09:04:46;28.88;;;3.55;;
33254;SDS011;19623;52.482;9.762;2022-12-24T09:07:12;23.90;;;3.95;;
33254;SDS011;19623;52.482;9.762;2022-12-24T09:09:38;31.20;;;4.63;;
33254;SDS011;19623;52.482;9.762;2022-12-24T09:12:06;24.25;;;3.70;;
33254;SDS011;19623;52.482;9.762;2022-12-24T09:14:33;23.80;;;4.13;;
33254;SDS011;19623;52.482;9.762;2022-12-24T09:16:59;26.02;;;4.35;;
33254;SDS011;19623;52.482;9.762;2022-12-24T09:19:26;27.50;;;4.68;;
33254;SDS011;19623;52.482;9.762;2022-12-24T09:21:52;29.27;;;4.55;;
33254;SDS011;19623;52.482;9.762;2022-12-24T09:24:18;32.38;;;5.05;;
33254;SDS011;19623;52.482;9.762;2022-12-24T09:26:43;26.08;;;5.10;;
33254;SDS011;19623;52.482;9.762;2022-12-24T09:29:13;22.42;;;4.50;;
33254;SDS011;19623;52.482;9.762;2022-12-24T09:31:40;22.77;;;5.30;;
33254;SDS011;19623;52.482;9.762;2022-12-24T09:34:05;29.02;;;5.47;;
33254;SDS011;19623;52.482;9.762;2022-12-24T09:36:31;24.05;;;4.75;;
33254;SDS011;19623;52.482;9.762;2022-12-24T09:38:58;28.08;;;5.30;;
33254;SDS011;19623;52.482;9.762;2022-12-24T09:44:23;32.75;;;5.70;;
33254;SDS011;19623;52.482;9.762;2022-12-24T09:47:00;27.20;;;6.00;;
33254;SDS011;19623;52.482;9.762;2022-12-24T09:49:43;28.05;;;5.93;;
33254;SDS011;19623;52.482;9.762;2022-12-24T09:52:13;27.02;;;6.75;;
33254;SDS011;19623;52.482;9.762;2022-12-24T09:54:48;37.33;;;7.05;;
33254;SDS011;19623;52.482;9.762;2022-12-24T09:57:24;33.42;;;5.70;;
33254;SDS011;19623;52.482;9.762;2022-12-24T09:59:54;25.75;;;5.63;;
33254;SDS011;19623;52.482;9.762;2022-12-24T10:02:19;37.72;;;6.90;;
33254;SDS011;19623;52.482;9.762;2022-12-24T10:04:46;34.15;;;6.88;;
33254;SDS011;19623;52.482;9.762;2022-12-24T10:16:00;34.15;;;6.38;;
33254;SDS011;19623;52.482;9.762;2022-12-24T10:21:30;38.45;;;8.13;;
33254;SDS011;19623;52.482;9.762;2022-12-24T10:24:12;28.90;;;5.78;;
33254;SDS011;19623;52.482;9.762;2022-12-24T10:26:51;27.88;;;6.80;;
33254;SDS011;19623;52.482;9.762;2022-12-24T10:29:26;29.35;;;6.38;;
33254;SDS011;19623;52.482;9.762;2022-12-24T10:37:28;25.75;;;5.53;;
33254;SDS011;19623;52.482;9.762;2022-12-24T10:39:55;42.72;;;7.38;;
33254;SDS011;19623;52.482;9.762;2022-12-24T10:42:23;33.50;;;5.90;;
33254;SDS011;19623;52.482;9.762;2022-12-24T10:45:03;31.27;;;7.97;;
33254;SDS011;19623;52.482;9.762;2022-12-24T10:47:32;27.02;;;6.53;;
33254;SDS011;19623;52.482;9.762;2022-12-24T10:50:49;39.22;;;7.47;;
33254;SDS011;19623;52.482;9.762;2022-12-24T10:52:54;34.35;;;7.40;;
33254;SDS011;19623;52.482;9.762;2022-12-24T10:55:24;39.80;;;7.15;;
33254;SDS011;19623;52.482;9.762;2022-12-24T10:58:01;29.30;;;7.10;;
33254;SDS011;19623;52.482;9.762;2022-12-24T11:00:30;34.45;;;7.13;;
33254;SDS011;19623;52.482;9.762;2022-12-24T11:05:38;36.70;;;6.63;;
33254;SDS011;19623;52.482;9.762;2022-12-24T11:08:05;25.00;;;6.32;;
33254;SDS011;19623;52.482;9.762;2022-12-24T11:10:39;33.75;;;6.75;;
33254;SDS011;19623;52.482;9.762;2022-12-24T11:18:48;25.38;;;6.43;;
33254;SDS011;19623;52.482;9.762;2022-12-24T11:21:29;26.65;;;6.30;;
33254;SDS011;19623;52.482;9.762;2022-12-24T11:24:04;30.20;;;5.50;;
33254;SDS011;19623;52.482;9.762;2022-12-24T11:26:38;28.15;;;6.70;;
33254;SDS011;19623;52.482;9.762;2022-12-24T11:29:39;20.70;;;5.35;;
33254;SDS011;19623;52.482;9.762;2022-12-24T11:32:15;28.75;;;6.32;;
33254;SDS011;19623;52.482;9.762;2022-12-24T11:34:44;21.50;;;5.90;;
33254;SDS011;19623;52.482;9.762;2022-12-24T11:37:13;28.60;;;6.72;;
33254;SDS011;19623;52.482;9.762;2022-12-24T11:39:44;22.67;;;6.00;;
33254;SDS011;19623;52.482;9.762;2022-12-24T11:42:24;24.10;;;5.75;;
33254;SDS011;19623;52.482;9.762;2022-12-24T11:44:50;25.52;;;6.13;;
33254;SDS011;19623;52.482;9.762;2022-12-24T11:47:16;19.38;;;5.32;;
33254;SDS011;19623;52.482;9.762;2022-12-24T11:49:41;18.02;;;4.65;;
33254;SDS011;19623;52.482;9.762;2022-12-24T11:54:50;19.50;;;4.80;;
33254;SDS011;19623;52.482;9.762;2022-12-24T11:57:42;16.48;;;4.43;;
33254;SDS011;19623;52.482;9.762;2022-12-24T12:00:14;17.30;;;4.55;;
33254;SDS011;19623;52.482;9.762;2022-12-24T12:02:40;28.48;;;4.97;;
33254;SDS011;19623;52.482;9.762;2022-12-24T12:05:31;27.65;;;5.55;;
33254;SDS011;19623;52.482;9.762;2022-12-24T12:07:58;18.63;;;4.90;;
33254;SDS011;19623;52.482;9.762;2022-12-24T12:10:35;21.98;;;5.90;;
33254;SDS011;19623;52.482;9.762;2022-12-24T12:13:10;28.27;;;6.00;;
33254;SDS011;19623;52.482;9.762;2022-12-24T12:15:40;24.00;;;5.53;;
33254;SDS011;19623;52.482;9.762;2022-12-24T12:18:14;28.10;;;6.07;;
33254;SDS011;19623;52.482;9.762;2022-12-24T12:20:47;19.92;;;5.78;;
33254;SDS011;19623;52.482;9.762;2022-12-24T12:28:40;22.70;;;5.00;;
33254;SDS011;19623;52.482;9.762;2022-12-24T12:31:58;18.17;;;4.50;;
33254;SDS011;19623;52.482;9.762;2022-12-24T12:34:16;21.20;;;4.47;;
33254;SDS011;19623;52.482;9.762;2022-12-24T12:36:48;17.65;;;4.65;;
33254;SDS011;19623;52.482;9.762;2022-12-24T12:39:18;15.70;;;4.38;;
33254;SDS011;19623;52.482;9.762;2022-12-24T12:44:47;19.50;;;4.40;;
33254;SDS011;19623;52.482;9.762;2022-12-24T12:52:53;21.75;;;4.80;;
33254;SDS011;19623;52.482;9.762;2022-12-24T12:58:00;16.92;;;4.28;;
33254;SDS011;19623;52.482;9.762;2022-12-24T13:00:34;14.32;;;3.88;;
33254;SDS011;19623;52.482;9.762;2022-12-24T13:06:10;15.70;;;4.00;;
33254;SDS011;19623;52.482;9.762;2022-12-24T13:20:24;12.98;;;4.03;;
33254;SDS011;19623;52.482;9.762;2022-12-24T13:25:37;19.85;;;4.72;;
33254;SDS011;19623;52.482;9.762;2022-12-24T13:30:40;17.33;;;3.95;;
33254;SDS011;19623;52.482;9.762;2022-12-24T13:33:12;12.18;;;3.65;;
33254;SDS011;19623;52.482;9.762;2022-12-24T13:36:05;10.18;;;2.90;;
33254;SDS011;19623;52.482;9.762;2022-12-24T13:49:37;7.07;;;2.35;;
33254;SDS011;19623;52.482;9.762;2022-12-24T13:54:45;7.28;;;2.50;;
33254;SDS011;19623;52.482;9.762;2022-12-24T13:57:31;5.35;;;1.90;;
33254;SDS011;19623;52.482;9.762;2022-12-24T14:02:49;8.15;;;1.88;;
33254;SDS011;19623;52.482;9.762;2022-12-24T14:05:38;5.38;;;1.45;;
33254;SDS011;19623;52.482;9.762;2022-12-24T14:08:08;5.60;;;1.20;;
33254;SDS011;19623;52.482;9.762;2022-12-24T14:10:40;6.93;;;1.33;;
33254;SDS011;19623;52.482;9.762;2022-12-24T14:18:22;3.38;;;1.60;;
33254;SDS011;19623;52.482;9.762;2022-12-24T14:20:49;12.23;;;2.45;;
33254;SDS011;19623;52.482;9.762;2022-12-24T14:23:21;3.70;;;1.50;;
33254;SDS011;19623;52.482;9.762;2022-12-24T14:26:11;4.22;;;1.40;;
33254;SDS011;19623;52.482;9.762;2022-12-24T14:31:25;12.68;;;2.30;;
33254;SDS011;19623;52.482;9.762;2022-12-24T14:33:50;6.57;;;2.10;;
33254;SDS011;19623;52.482;9.762;2022-12-24T14:36:21;4.85;;;1.85;;
33254;SDS011;19623;52.482;9.762;2022-12-24T14:38:48;14.82;;;2.65;;
33254;SDS011;19623;52.482;9.762;2022-12-24T14:44:14;7.35;;;2.72;;
33254;SDS011;19623;52.482;9.762;2022-12-24T14:47:00;8.70;;;2.85;;
33254;SDS011;19623;52.482;9.762;2022-12-24T14:49:58;8.73;;;3.22;;
33254;SDS011;19623;52.482;9.762;2022-12-24T14:55:43;9.68;;;2.55;;
33254;SDS011;19623;52.482;9.762;2022-12-24T14:58:29;10.07;;;2.55;;
33254;SDS011;19623;52.482;9.762;2022-12-24T15:01:00;9.40;;;3.25;;
33254;SDS011;19623;52.482;9.762;2022-12-24T15:03:58;13.73;;;3.60;;
33254;SDS011;19623;52.482;9.762;2022-12-24T15:06:24;11.68;;;3.38;;
33254;SDS011;19623;52.482;9.762;2022-12-24T15:08:50;16.50;;;4.40;;
33254;SDS011;19623;52.482;9.762;2022-12-24T15:11:19;13.05;;;3.72;;
33254;SDS011;19623;52.482;9.762;2022-12-24T15:13:47;14.13;;;3.38;;
33254;SDS011;19623;52.482;9.762;2022-12-24T15:16:21;15.60;;;4.22;;
33254;SDS011;19623;52.482;9.762;2022-12-24T15:18:52;13.70;;;3.88;;
33254;SDS011;19623;52.482;9.762;2022-12-24T15:21:24;15.20;;;5.80;;
33254;SDS011;19623;52.482;9.762;2022-12-24T15:23:54;18.25;;;5.35;;
33254;SDS011;19623;52.482;9.762;2022-12-24T15:28:54;13.18;;;4.80;;
33254;SDS011;19623;52.482;9.762;2022-12-24T15:31:22;11.77;;;4.25;;
33254;SDS011;19623;52.482;9.762;2022-12-24T15:33:51;10.50;;;3.80;;
33254;SDS011;19623;52.482;9.762;2022-12-24T15:36:37;18.08;;;5.30;;
33254;SDS011;19623;52.482;9.762;2022-12-24T15:39:06;23.38;;;6.68;;
33254;SDS011;19623;52.482;9.762;2022-12-24T15:41:39;18.60;;;6.15;;
33254;SDS011;19623;52.482;9.762;2022-12-24T15:47:07;14.63;;;4.40;;
33254;SDS011;19623;52.482;9.762;2022-12-24T15:49:45;18.98;;;4.95;;
33254;SDS011;19623;52.482;9.762;2022-12-24T15:52:13;13.73;;;4.72;;
33254;SDS011;19623;52.482;9.762;2022-12-24T15:54:43;13.48;;;4.82;;
33254;SDS011;19623;52.482;9.762;2022-12-24T16:04:49;20.17;;;6.60;;
33254;SDS011;19623;52.482;9.762;2022-12-24T16:07:24;22.48;;;6.95;;
33254;SDS011;19623;52.482;9.762;2022-12-24T16:10:22;16.95;;;6.07;;
33254;SDS011;19623;52.482;9.762;2022-12-24T16:12:48;30.25;;;7.03;;
33254;SDS011;19623;52.482;9.762;2022-12-24T16:15:14;25.75;;;6.47;;
33254;SDS011;19623;52.482;9.762;2022-12-24T16:17:40;26.25;;;6.40;;
33254;SDS011;19623;52.482;9.762;2022-12-24T16:20:15;23.42;;;6.25;;
33254;SDS011;19623;52.482;9.762;2022-12-24T16:22:45;22.58;;;6.07;;
33254;SDS011;19623;52.482;9.762;2022-12-24T16:25:20;26.25;;;6.43;;
33254;SDS011;19623;52.482;9.762;2022-12-24T16:27:49;21.25;;;7.57;;
33254;SDS011;19623;52.482;9.762;2022-12-24T16:30:15;26.42;;;7.03;;
33254;SDS011;19623;52.482;9.762;2022-12-24T16:32:41;20.58;;;6.32;;
33254;SDS011;19623;52.482;9.762;2022-12-24T16:35:11;25.77;;;7.13;;
33254;SDS011;19623;52.482;9.762;2022-12-24T16:37:53;25.50;;;6.50;;
33254;SDS011;19623;52.482;9.762;2022-12-24T16:40:19;25.08;;;7.20;;
33254;SDS011;19623;52.482;9.762;2022-12-24T16:42:45;26.17;;;7.85;;
33254;SDS011;19623;52.482;9.762;2022-12-24T16:45:29;32.75;;;7.47;;
33254;SDS011;19623;52.482;9.762;2022-12-24T16:47:56;29.63;;;7.13;;
33254;SDS011;19623;52.482;9.762;2022-12-24T16:50:22;26.55;;;7.18;;
33254;SDS011;19623;52.482;9.762;2022-12-24T16:52:48;30.70;;;7.47;;
33254;SDS011;19623;52.482;9.762;2022-12-24T16:55:14;28.02;;;7.68;;
33254;SDS011;19623;52.482;9.762;2022-12-24T16:57:40;28.33;;;6.75;;
33254;SDS011;19623;52.482;9.762;2022-12-24T17:00:07;28.52;;;7.22;;
33254;SDS011;19623;52.482;9.762;2022-12-24T17:02:38;32.22;;;7.95;;